Time;durP1;ratioP1;P1;durP2;ratioP2;P2;SDS_P1;SDS_P2;PMS_P1;PMS_P2;Temp;Humidity;BMP_temperature;BMP_pressure;BME280_temperature;BME280_humidity;BME280_pressure;Samples;Min_cycle;Max_cycle;Signal;HPM_P1;HPM_P2
2022/09/25 00:00:18;;;;;;;13.43;12.23;;;15.30;99.90;;;;;;5072754;28;20192;-68
2022/09/25 00:02:43;;;;;;;11.60;10.50;;;15.40;99.90;;;;;;5071800;28;20175;-68
2022/09/25 00:05:09;;;;;;;13.77;12.40;;;15.40;99.90;;;;;;5072849;28;20194;-69
2022/09/25 00:07:34;;;;;;;11.70;10.60;;;15.30;99.90;;;;;;5072682;28;20639;-67
2022/09/25 00:10:00;;;;;;;13.70;12.30;;;15.30;99.90;;;;;;5072604;28;20646;-68
2022/09/25 00:12:26;;;;;;;14.50;13.20;;;15.30;99.90;;;;;;5072619;28;20260;-68
2022/09/25 00:14:52;;;;;;;12.53;11.27;;;15.30;99.90;;;;;;5072914;28;20223;-68
2022/09/25 00:17:17;;;;;;;12.60;11.40;;;15.30;99.90;;;;;;5072442;28;20164;-68
2022/09/25 00:19:49;;;;;;;13.43;12.30;;;15.30;99.90;;;;;;5072220;28;20414;-68
2022/09/25 00:22:16;;;;;;;13.93;12.70;;;15.30;99.90;;;;;;5072633;28;20154;-68
2022/09/25 00:24:42;;;;;;;13.47;12.20;;;15.30;99.90;;;;;;5072225;28;20436;-68
2022/09/25 00:27:08;;;;;;;12.63;11.33;;;15.30;99.90;;;;;;5072591;28;20408;-68
2022/09/25 00:29:35;;;;;;;14.57;13.13;;;15.20;99.90;;;;;;5072211;28;20429;-68
2022/09/25 00:32:02;;;;;;;14.27;12.83;;;15.20;99.90;;;;;;5071833;28;20221;-68
2022/09/25 00:34:28;;;;;;;14.90;12.20;;;15.20;99.90;;;;;;5070995;28;20429;-68
2022/09/25 00:36:53;;;;;;;14.60;13.20;;;15.10;99.90;;;;;;5072591;28;20419;-68
2022/09/25 00:39:19;;;;;;;16.80;15.20;;;15.10;99.90;;;;;;5072405;28;20173;-68
2022/09/25 00:41:44;;;;;;;14.10;12.70;;;15.10;99.90;;;;;;5072306;28;20241;-68
2022/09/25 00:44:51;;;;;;;15.77;14.27;;;15.10;99.90;;;;;;5072224;28;20513;-68
2022/09/25 00:47:21;;;;;;;14.53;13.13;;;15.10;99.90;;;;;;5059048;28;20235;-68
2022/09/25 00:49:48;;;;;;;14.13;12.80;;;15.10;99.90;;;;;;5071946;28;20400;-68
2022/09/25 00:52:14;;;;;;;16.10;14.63;;;15.10;99.90;;;;;;5072180;28;20824;-68
2022/09/25 00:54:53;;;;;;;14.70;13.30;;;15.10;99.90;;;;;;5072457;28;20401;-68
2022/09/25 00:57:25;;;;;;;17.90;16.07;;;15.00;99.90;;;;;;5072561;28;20302;-68
2022/09/25 00:59:56;;;;;;;13.87;12.43;;;14.90;99.90;;;;;;5072335;28;20400;-68
2022/09/25 01:02:29;;;;;;;14.47;13.13;;;14.90;99.90;;;;;;5071966;28;20378;-67
2022/09/25 01:04:59;;;;;;;16.57;14.80;;;14.90;99.90;;;;;;5070585;28;20440;-68
2022/09/25 01:07:24;;;;;;;17.20;15.50;;;14.90;99.90;;;;;;5072127;28;20477;-68
2022/09/25 01:09:50;;;;;;;14.50;13.20;;;15.00;99.90;;;;;;5071049;28;20399;-69
2022/09/25 01:12:15;;;;;;;18.47;16.67;;;14.90;99.90;;;;;;5072243;28;20638;-68
2022/09/25 01:14:42;;;;;;;17.03;14.77;;;15.00;99.90;;;;;;5072116;28;20260;-68
2022/09/25 01:17:25;;;;;;;13.63;12.30;;;15.10;99.90;;;;;;5072533;28;20165;-68
2022/09/25 01:20:25;;;;;;;13.93;12.63;;;15.00;99.90;;;;;;5075375;28;20408;-68
2022/09/25 01:22:53;;;;;;;15.70;14.13;;;15.10;99.90;;;;;;5056097;28;20406;-67
2022/09/25 01:25:41;;;;;;;16.63;15.17;;;15.00;99.90;;;;;;5055675;28;20472;-68
2022/09/25 01:28:48;;;;;;;14.43;13.10;;;14.90;99.90;;;;;;5056011;28;20429;-68
2022/09/25 01:31:22;;;;;;;15.20;13.70;;;15.00;99.90;;;;;;5055893;28;20416;-68
2022/09/25 01:33:53;;;;;;;13.67;12.37;;;15.00;99.90;;;;;;5055882;28;20881;-68
2022/09/25 01:36:28;;;;;;;14.97;13.37;;;15.10;99.90;;;;;;5055090;28;20483;-68
2022/09/25 01:39:01;;;;;;;14.90;13.40;;;15.20;99.90;;;;;;5068161;28;20916;-67
2022/09/25 01:41:38;;;;;;;14.40;13.07;;;15.10;99.90;;;;;;5075349;28;20505;-68
2022/09/25 01:44:22;;;;;;;15.03;13.53;;;15.10;99.90;;;;;;5075398;28;20434;-67
2022/09/25 01:46:51;;;;;;;14.70;13.30;;;15.10;99.90;;;;;;5074319;28;20424;-67
2022/09/25 01:49:23;;;;;;;14.77;13.37;;;15.10;99.90;;;;;;5075145;28;20422;-67
2022/09/25 01:51:52;;;;;;;17.53;15.63;;;14.90;99.90;;;;;;5084780;22;20505;-71
2022/09/25 01:54:23;;;;;;;16.50;14.97;;;15.00;99.90;;;;;;5057226;28;20903;-71
2022/09/25 01:56:55;;;;;;;15.00;13.60;;;15.00;99.90;;;;;;5038024;28;20414;-71
2022/09/25 01:59:33;;;;;;;15.83;14.27;;;14.90;99.90;;;;;;5056035;28;20405;-71
2022/09/25 02:02:02;;;;;;;17.30;15.50;;;15.10;99.90;;;;;;5055352;28;20433;-71
2022/09/25 02:04:38;;;;;;;16.70;15.10;;;15.10;99.90;;;;;;5054697;28;20451;-70
2022/09/25 02:07:09;;;;;;;15.53;14.10;;;15.10;99.90;;;;;;5055557;28;20405;-71
2022/09/25 02:09:48;;;;;;;15.57;14.00;;;15.20;99.90;;;;;;5056051;28;20385;-71
2022/09/25 02:12:22;;;;;;;14.57;13.20;;;15.30;99.90;;;;;;5054569;28;20429;-71
2022/09/25 02:14:52;;;;;;;16.40;14.60;;;15.30;99.90;;;;;;5055955;28;20436;-71
2022/09/25 02:23:04;;;;;;;18.83;16.97;;;15.40;99.90;;;;;;5055517;28;20469;-71
2022/09/25 02:25:39;;;;;;;16.47;14.97;;;15.30;99.90;;;;;;5055330;28;20530;-71
2022/09/25 02:28:05;;;;;;;15.90;14.40;;;15.40;99.90;;;;;;5055029;28;20399;-70
2022/09/25 02:30:30;;;;;;;15.30;13.83;;;15.40;99.90;;;;;;5054360;28;20431;-70
2022/09/25 02:32:57;;;;;;;15.50;14.00;;;15.40;99.90;;;;;;5055655;28;20176;-71
2022/09/25 02:35:24;;;;;;;16.23;14.77;;;15.40;99.90;;;;;;5055333;28;20170;-71
2022/09/25 02:37:50;;;;;;;15.37;13.87;;;15.50;99.90;;;;;;5055396;28;20783;-72
2022/09/25 02:40:15;;;;;;;15.73;14.20;;;15.50;99.90;;;;;;5055454;28;20409;-71
2022/09/25 02:42:57;;;;;;;16.23;13.43;;;15.50;99.90;;;;;;5055197;28;20506;-70
2022/09/25 02:45:49;;;;;;;18.30;16.60;;;15.40;99.90;;;;;;5055524;28;20185;-71
2022/09/25 02:48:48;;;;;;;16.40;14.87;;;15.40;99.90;;;;;;5055077;28;20905;-71
2022/09/25 02:51:32;;;;;;;14.30;12.80;;;15.50;99.90;;;;;;5049937;28;20482;-70
2022/09/25 02:54:04;;;;;;;16.17;14.53;;;15.50;99.90;;;;;;5048506;28;20512;-70
2022/09/25 02:56:42;;;;;;;15.63;14.07;;;15.50;99.90;;;;;;5054867;28;20392;-70
2022/09/25 02:59:15;;;;;;;14.90;13.50;;;15.50;99.90;;;;;;5055266;28;20396;-70
2022/09/25 03:01:42;;;;;;;16.53;14.83;;;15.50;99.90;;;;;;5054998;28;20420;-70
2022/09/25 03:04:09;;;;;;;15.93;14.43;;;15.40;99.90;;;;;;5054652;28;20502;-70
2022/09/25 03:06:37;;;;;;;14.63;13.13;;;15.30;99.90;;;;;;5053384;28;20425;-70
2022/09/25 03:09:05;;;;;;;13.90;12.70;;;15.40;99.90;;;;;;5054710;28;20929;-71
2022/09/25 03:11:35;;;;;;;14.17;12.67;;;15.40;99.90;;;;;;5054878;28;20428;-71
2022/09/25 03:14:04;;;;;;;13.50;12.20;;;15.40;99.90;;;;;;5054493;28;20417;-71
2022/09/25 03:16:50;;;;;;;14.07;12.60;;;15.50;99.90;;;;;;5054327;28;20404;-70
2022/09/25 03:19:18;;;;;;;13.13;11.93;;;15.50;99.90;;;;;;5053264;28;20424;-70
2022/09/25 03:21:45;;;;;;;15.43;13.93;;;15.40;99.90;;;;;;5054279;28;20421;-71
2022/09/25 03:24:10;;;;;;;14.67;12.63;;;15.40;99.90;;;;;;5054477;28;20459;-71
2022/09/25 03:26:36;;;;;;;13.00;11.70;;;15.50;99.90;;;;;;5054428;28;20401;-71
2022/09/25 03:29:02;;;;;;;12.07;10.87;;;15.50;99.90;;;;;;5054490;28;20169;-71
2022/09/25 03:31:29;;;;;;;13.37;12.03;;;15.50;99.90;;;;;;5054379;28;20183;-71
2022/09/25 03:33:55;;;;;;;12.03;10.90;;;15.50;99.90;;;;;;5053650;28;20415;-71
2022/09/25 03:36:23;;;;;;;13.07;11.77;;;15.50;99.90;;;;;;5054049;28;20493;-70
2022/09/25 03:38:51;;;;;;;13.80;12.43;;;15.60;99.90;;;;;;5053956;28;20408;-71
2022/09/25 03:41:20;;;;;;;12.30;11.13;;;15.60;99.90;;;;;;5053346;28;20429;-70
2022/09/25 03:43:49;;;;;;;13.70;12.27;;;15.60;99.90;;;;;;5053841;28;20525;-70
2022/09/25 03:46:15;;;;;;;13.77;12.33;;;15.60;99.90;;;;;;5054110;28;20400;-70
2022/09/25 03:48:41;;;;;;;14.10;12.60;;;15.50;99.90;;;;;;5053007;28;20500;-71
2022/09/25 03:51:07;;;;;;;12.30;11.10;;;15.50;99.90;;;;;;5053868;28;20192;-70
2022/09/25 03:53:34;;;;;;;14.13;12.73;;;15.50;99.90;;;;;;5054072;28;20403;-70
2022/09/25 03:56:01;;;;;;;16.10;14.50;;;15.50;99.90;;;;;;5053991;28;20424;-71
2022/09/25 03:58:28;;;;;;;15.00;13.60;;;15.50;99.90;;;;;;5052769;28;20412;-70
2022/09/25 04:00:57;;;;;;;18.90;16.93;;;15.40;99.90;;;;;;5035730;28;20435;-71
2022/09/25 04:03:27;;;;;;;13.80;12.47;;;15.50;99.90;;;;;;5053442;28;20416;-70
2022/09/25 04:05:54;;;;;;;15.70;14.20;;;15.40;99.90;;;;;;5052366;28;20869;-70
2022/09/25 04:08:21;;;;;;;12.63;11.37;;;15.40;99.90;;;;;;5053603;28;20441;-70
2022/09/25 04:10:47;;;;;;;15.70;14.20;;;15.30;99.90;;;;;;5053814;28;20782;-71
2022/09/25 04:13:13;;;;;;;14.97;13.57;;;15.20;99.90;;;;;;5053800;28;20406;-70
2022/09/25 04:15:41;;;;;;;16.43;14.73;;;15.30;99.90;;;;;;5035565;28;20593;-70
2022/09/25 04:18:07;;;;;;;13.40;12.10;;;15.30;99.90;;;;;;5053615;28;20195;-70
2022/09/25 04:20:33;;;;;;;13.47;12.20;;;15.30;99.90;;;;;;5052007;28;20471;-70
2022/09/25 04:22:59;;;;;;;12.77;11.60;;;15.30;99.90;;;;;;5053070;28;20206;-71
2022/09/25 04:25:24;;;;;;;12.20;11.00;;;15.40;99.90;;;;;;5053652;28;20505;-70
2022/09/25 04:27:55;;;;;;;12.20;10.90;;;15.40;99.90;;;;;;5053646;28;20579;-71
2022/09/25 04:30:25;;;;;;;12.00;10.90;;;15.40;99.90;;;;;;5053730;28;20231;-71
2022/09/25 04:35:36;;;;;;;12.60;11.40;;;15.40;99.90;;;;;;5053343;28;20428;-71
2022/09/25 04:38:01;;;;;;;14.70;13.17;;;15.40;99.90;;;;;;5053243;28;20498;-71
2022/09/25 04:40:28;;;;;;;12.80;11.60;;;15.40;99.90;;;;;;5053187;28;20193;-71
2022/09/25 04:42:57;;;;;;;13.00;11.80;;;15.30;99.90;;;;;;5053664;28;20178;-71
2022/09/25 04:45:25;;;;;;;14.57;13.20;;;15.30;99.90;;;;;;5053370;28;20454;-71
2022/09/25 04:47:54;;;;;;;14.60;13.20;;;15.30;99.90;;;;;;5053345;28;20405;-71
2022/09/25 04:50:23;;;;;;;12.73;11.50;;;15.30;99.90;;;;;;5052907;28;20425;-70
2022/09/25 04:52:50;;;;;;;15.73;14.23;;;15.30;99.90;;;;;;5054824;28;20439;-70
2022/09/25 04:55:17;;;;;;;16.50;14.97;;;15.40;99.90;;;;;;5057162;28;20780;-70
2022/09/25 04:57:42;;;;;;;17.47;15.77;;;15.30;99.90;;;;;;5057057;28;20495;-71
2022/09/25 05:00:09;;;;;;;20.90;18.70;;;14.90;99.90;;;;;;5057078;28;20937;-70
2022/09/25 05:02:35;;;;;;;16.90;15.27;;;14.80;99.90;;;;;;5056959;28;20536;-69
2022/09/25 05:05:01;;;;;;;20.67;18.57;;;14.80;99.90;;;;;;5055678;28;20452;-71
2022/09/25 05:07:27;;;;;;;17.93;16.03;;;14.80;99.90;;;;;;5056780;28;20408;-70
2022/09/25 05:09:52;;;;;;;18.33;16.50;;;14.80;99.90;;;;;;5057217;28;20201;-70
2022/09/25 05:12:18;;;;;;;16.60;15.00;;;15.00;99.90;;;;;;5057019;28;20216;-71
2022/09/25 05:14:44;;;;;;;18.07;16.27;;;15.00;99.90;;;;;;5056694;28;20268;-72
2022/09/25 05:17:10;;;;;;;18.40;16.30;;;15.00;99.90;;;;;;5038787;28;20455;-70
2022/09/25 05:19:36;;;;;;;19.03;17.07;;;15.10;99.90;;;;;;5056603;28;20181;-71
2022/09/25 05:22:02;;;;;;;16.83;15.13;;;15.10;99.90;;;;;;5057565;28;20241;-71
2022/09/25 05:24:29;;;;;;;18.23;16.43;;;15.20;99.90;;;;;;5057378;28;20450;-72
2022/09/25 05:26:54;;;;;;;17.77;16.17;;;15.30;99.90;;;;;;5057570;28;20165;-71
2022/09/25 05:29:20;;;;;;;16.47;14.70;;;15.40;99.90;;;;;;5056855;28;20443;-71
2022/09/25 05:31:47;;;;;;;17.97;15.80;;;15.40;99.90;;;;;;5056721;28;20211;-71
2022/09/25 05:34:13;;;;;;;17.00;15.30;;;15.40;99.90;;;;;;5038663;28;20174;-71
2022/09/25 05:36:38;;;;;;;17.37;15.70;;;15.30;99.90;;;;;;5057008;28;20916;-71
2022/09/25 05:39:04;;;;;;;18.83;16.83;;;15.30;99.90;;;;;;5056429;28;20183;-71
2022/09/25 05:41:32;;;;;;;15.53;14.00;;;15.20;99.90;;;;;;5056183;28;20257;-71
2022/09/25 05:43:58;;;;;;;15.67;14.07;;;15.10;99.90;;;;;;5054661;28;20288;-70
2022/09/25 05:46:23;;;;;;;14.67;13.33;;;15.10;99.90;;;;;;5045821;28;20928;-71
2022/09/25 05:48:49;;;;;;;16.27;14.73;;;15.20;99.90;;;;;;5036106;28;20171;-71
2022/09/25 05:51:14;;;;;;;12.60;11.40;;;15.20;99.90;;;;;;5035874;28;20709;-71
2022/09/25 05:53:40;;;;;;;12.13;11.03;;;15.30;99.90;;;;;;5036293;28;20633;-71
2022/09/25 05:56:06;;;;;;;13.97;12.67;;;15.30;99.90;;;;;;5036662;28;20167;-71
2022/09/25 05:58:33;;;;;;;11.60;10.50;;;15.20;99.90;;;;;;5036256;28;20167;-71
2022/09/25 06:01:02;;;;;;;11.20;10.00;;;15.30;99.90;;;;;;5035986;28;20660;-71
2022/09/25 06:03:28;;;;;;;12.23;10.90;;;15.40;99.90;;;;;;5035686;28;20987;-71
2022/09/25 06:05:58;;;;;;;11.63;10.63;;;15.40;99.90;;;;;;5054389;28;20433;-71
2022/09/25 06:08:25;;;;;;;12.77;11.57;;;15.50;99.90;;;;;;5055919;28;20428;-71
2022/09/25 06:10:54;;;;;;;10.50;9.57;;;15.40;99.90;;;;;;5055467;28;20436;-72
2022/09/25 06:13:22;;;;;;;9.93;9.03;;;15.40;99.90;;;;;;5055584;28;20433;-70
2022/09/25 06:15:51;;;;;;;10.00;9.10;;;15.30;99.90;;;;;;5055611;28;20466;-71
2022/09/25 06:18:17;;;;;;;11.23;9.57;;;15.40;99.90;;;;;;5055370;28;20411;-71
2022/09/25 06:20:43;;;;;;;9.67;8.77;;;15.40;99.90;;;;;;5053776;28;20810;-70
2022/09/25 06:23:08;;;;;;;10.67;9.67;;;15.50;99.90;;;;;;5054821;28;20415;-71
2022/09/25 06:25:37;;;;;;;10.60;9.60;;;15.40;99.90;;;;;;5055206;28;20671;-70
2022/09/25 06:28:03;;;;;;;12.77;11.47;;;15.40;99.90;;;;;;5055195;28;20228;-70
2022/09/25 06:30:34;;;;;;;11.10;10.10;;;15.50;99.90;;;;;;5055024;28;20480;-70
2022/09/25 06:33:10;;;;;;;10.27;9.27;;;15.60;99.90;;;;;;5055318;28;20383;-70
2022/09/25 06:35:40;;;;;;;10.80;9.70;;;15.70;99.90;;;;;;5055051;28;20741;-70
2022/09/25 06:38:06;;;;;;;10.50;9.43;;;15.70;99.90;;;;;;5055228;28;20463;-70
2022/09/25 06:40:32;;;;;;;9.97;8.97;;;15.70;99.90;;;;;;5054787;28;20445;-70
2022/09/25 06:42:59;;;;;;;9.43;8.43;;;15.70;99.90;;;;;;5053815;28;20258;-70
2022/09/25 06:45:26;;;;;;;10.77;9.43;;;15.70;99.90;;;;;;5054716;28;20461;-70
2022/09/25 06:48:02;;;;;;;11.03;9.70;;;15.80;99.90;;;;;;5054743;28;20412;-69
2022/09/25 06:50:49;;;;;;;11.60;10.50;;;15.70;99.90;;;;;;5054429;28;20810;-71
2022/09/25 06:53:17;;;;;;;11.07;10.07;;;15.60;99.90;;;;;;5053855;28;20423;-70
2022/09/25 06:55:46;;;;;;;11.80;10.70;;;15.60;99.90;;;;;;5036685;28;20508;-70
2022/09/25 06:58:18;;;;;;;14.23;12.93;;;15.60;99.90;;;;;;5054262;28;20406;-70
2022/09/25 07:00:48;;;;;;;13.23;11.93;;;15.80;99.90;;;;;;5054769;28;20434;-70
2022/09/25 07:06:00;;;;;;;11.50;10.30;;;16.00;99.90;;;;;;5053578;28;20782;-71
2022/09/25 07:08:26;;;;;;;11.00;10.00;;;16.00;99.90;;;;;;5054626;28;20435;-70
2022/09/25 07:10:55;;;;;;;12.83;11.63;;;16.00;99.90;;;;;;5054340;28;21078;-71
2022/09/25 07:13:23;;;;;;;12.73;10.93;;;16.10;99.90;;;;;;5054397;28;20397;-71
2022/09/25 07:15:54;;;;;;;12.80;11.20;;;16.10;99.90;;;;;;5053764;28;20486;-71
2022/09/25 07:18:21;;;;;;;13.90;12.50;;;16.10;99.90;;;;;;5054705;28;20770;-70
2022/09/25 07:20:47;;;;;;;11.60;10.40;;;16.10;99.90;;;;;;5053610;28;20428;-71
2022/09/25 07:23:14;;;;;;;15.80;14.17;;;16.10;99.90;;;;;;5054317;28;20445;-71
2022/09/25 07:25:40;;;;;;;14.77;13.27;;;16.10;99.90;;;;;;5036005;28;20460;-71
2022/09/25 07:28:06;;;;;;;14.53;12.30;;;16.00;99.90;;;;;;5035796;28;20494;-71
2022/09/25 07:30:32;;;;;;;13.43;12.03;;;16.20;99.90;;;;;;5054209;28;20426;-71
2022/09/25 07:32:58;;;;;;;13.27;11.97;;;16.10;99.90;;;;;;5053844;28;20421;-71
2022/09/25 07:35:26;;;;;;;15.13;13.30;;;15.90;99.90;;;;;;5036021;28;20530;-70
2022/09/25 07:37:54;;;;;;;14.87;13.37;;;15.90;99.90;;;;;;5053894;28;20631;-71
2022/09/25 07:40:19;;;;;;;14.27;12.87;;;16.00;99.90;;;;;;5053731;28;20468;-71
2022/09/25 07:42:45;;;;;;;13.97;12.63;;;16.00;99.90;;;;;;5054021;28;20497;-70
2022/09/25 07:45:11;;;;;;;12.60;11.30;;;16.10;99.90;;;;;;5053890;28;20194;-71
2022/09/25 07:47:36;;;;;;;12.17;10.90;;;16.00;99.90;;;;;;5053725;28;20170;-71
2022/09/25 07:50:02;;;;;;;12.47;11.17;;;16.10;99.90;;;;;;5053788;28;20174;-71
2022/09/25 07:52:28;;;;;;;11.70;10.53;;;16.20;99.90;;;;;;5071911;23;20709;-68
2022/09/25 07:54:53;;;;;;;11.00;9.93;;;16.30;99.90;;;;;;5036008;28;20408;-68
2022/09/25 07:57:19;;;;;;;10.83;9.83;;;16.40;99.90;;;;;;5033220;28;20264;-68
2022/09/25 07:59:48;;;;;;;11.00;9.90;;;16.50;99.90;;;;;;5032989;28;20664;-68
2022/09/25 08:02:14;;;;;;;10.27;9.20;;;16.50;99.90;;;;;;5033062;28;20277;-68
2022/09/25 08:04:39;;;;;;;10.40;9.03;;;16.70;99.90;;;;;;5042164;28;20551;-68
2022/09/25 08:07:05;;;;;;;11.33;9.53;;;16.50;99.90;;;;;;5034816;28;20177;-67
2022/09/25 08:09:30;;;;;;;10.57;9.57;;;16.60;99.90;;;;;;5053754;28;20624;-68
2022/09/25 08:11:56;;;;;;;11.40;10.30;;;16.60;99.90;;;;;;5052474;28;20211;-68
2022/09/25 08:14:22;;;;;;;9.67;8.67;;;16.60;99.90;;;;;;5052275;28;20172;-68
2022/09/25 08:16:54;;;;;;;11.03;9.90;;;16.50;99.90;;;;;;5052612;28;20302;-67
2022/09/25 08:19:22;;;;;;;11.60;10.40;;;16.30;99.90;;;;;;5050435;28;20215;-67
2022/09/25 08:21:48;;;;;;;8.97;8.07;;;16.50;99.90;;;;;;5052353;28;20527;-67
2022/09/25 08:24:13;;;;;;;9.23;8.33;;;16.60;99.90;;;;;;5052863;28;20557;-67
2022/09/25 08:26:39;;;;;;;9.80;8.87;;;16.60;99.90;;;;;;5052604;28;20507;-67
2022/09/25 08:29:05;;;;;;;9.27;8.37;;;16.50;99.90;;;;;;5052578;28;20242;-68
2022/09/25 08:31:33;;;;;;;9.87;8.63;;;16.60;99.90;;;;;;5052705;28;20213;-67
2022/09/25 08:33:58;;;;;;;8.80;8.00;;;16.60;99.90;;;;;;5052134;28;20925;-67
2022/09/25 08:36:24;;;;;;;9.33;8.43;;;16.60;99.90;;;;;;5052462;28;20415;-68
2022/09/25 08:38:57;;;;;;;9.00;8.10;;;16.50;99.90;;;;;;5052703;28;20181;-68
2022/09/25 08:41:33;;;;;;;8.90;7.83;;;16.90;99.90;;;;;;5052456;28;20672;-67
2022/09/25 08:44:32;;;;;;;9.43;8.47;;;16.90;99.90;;;;;;5052215;28;20510;-67
2022/09/25 08:50:13;;;;;;;8.33;7.60;;;16.90;99.90;;;;;;5052318;28;20384;-67
2022/09/25 08:52:42;;;;;;;7.80;7.00;;;17.10;99.90;;;;;;5052159;28;21042;-68
2022/09/25 08:58:23;;;;;;;9.40;8.60;;;17.60;99.90;;;;;;5052372;28;21000;-67
2022/09/25 09:00:54;;;;;;;9.80;8.43;;;17.60;99.90;;;;;;5052348;28;20424;-67
2022/09/25 09:03:24;;;;;;;9.00;8.10;;;17.50;99.90;;;;;;5052533;28;20391;-67
2022/09/25 09:05:58;;;;;;;9.00;7.70;;;17.50;99.90;;;;;;5051899;28;20436;-67
2022/09/25 09:08:27;;;;;;;8.80;8.00;;;17.40;99.90;;;;;;5051184;28;20495;-67
2022/09/25 09:11:21;;;;;;;8.83;8.03;;;17.30;99.90;;;;;;5052206;28;20417;-67
2022/09/25 09:14:03;;;;;;;9.27;8.37;;;16.90;99.90;;;;;;5050182;28;20489;-67
2022/09/25 09:16:44;;;;;;;8.70;7.90;;;17.00;99.90;;;;;;5052067;28;20852;-67
2022/09/25 09:19:11;;;;;;;8.63;7.87;;;16.90;99.90;;;;;;5051959;28;20384;-67
2022/09/25 09:22:02;;;;;;;9.00;8.20;;;16.90;99.90;;;;;;5050728;28;20447;-67
2022/09/25 09:24:42;;;;;;;8.67;7.27;;;16.90;99.90;;;;;;5037946;28;20464;-67
2022/09/25 09:27:37;;;;;;;7.17;6.57;;;17.20;99.90;;;;;;5052194;28;20875;-67
2022/09/25 09:30:12;;;;;;;7.20;6.50;;;17.10;99.90;;;;;;5052053;28;20730;-67
2022/09/25 09:32:55;;;;;;;8.43;7.73;;;17.10;99.90;;;;;;5033945;28;20535;-67
2022/09/25 09:35:24;;;;;;;7.70;7.00;;;17.30;99.90;;;;;;5031504;28;20892;-67
2022/09/25 09:38:03;;;;;;;8.57;7.77;;;17.20;99.90;;;;;;5032176;28;20420;-67
2022/09/25 09:40:52;;;;;;;8.60;7.47;;;17.30;99.90;;;;;;5039177;28;20951;-67
2022/09/25 09:43:33;;;;;;;7.20;6.50;;;17.40;99.90;;;;;;5055987;28;20424;-67
2022/09/25 09:46:37;;;;;;;8.47;7.77;;;17.80;99.90;;;;;;5055586;28;20448;-67
2022/09/25 09:49:26;;;;;;;6.57;6.07;;;17.90;99.90;;;;;;5055322;28;20472;-67
2022/09/25 09:52:16;;;;;;;7.47;6.87;;;17.60;99.90;;;;;;5054999;28;20523;-67
2022/09/25 09:54:57;;;;;;;8.33;7.53;;;17.70;99.90;;;;;;5055091;28;20411;-67
2022/09/25 09:57:30;;;;;;;6.50;5.90;;;17.90;99.90;;;;;;5055299;28;20405;-67
2022/09/25 10:00:01;;;;;;;10.63;7.33;;;17.90;99.90;;;;;;5055299;28;20411;-67
2022/09/25 10:02:41;;;;;;;8.20;7.30;;;17.50;99.90;;;;;;5055214;28;20490;-67
2022/09/25 10:05:46;;;;;;;7.00;6.40;;;17.60;99.90;;;;;;5037123;28;20444;-67
2022/09/25 10:08:12;;;;;;;8.20;6.93;;;17.70;99.90;;;;;;4953660;29;20437;-67
2022/09/25 10:10:41;;;;;;;8.17;6.40;;;17.50;99.90;;;;;;4954902;28;20409;-67
2022/09/25 10:13:44;;;;;;;8.27;7.47;;;17.40;99.90;;;;;;4994880;28;20179;-67
2022/09/25 10:16:19;;;;;;;7.70;7.00;;;17.40;99.90;;;;;;5029973;28;20410;-67
2022/09/25 10:18:52;;;;;;;7.97;7.27;;;17.60;99.90;;;;;;5045433;28;20420;-69
2022/09/25 10:21:21;;;;;;;8.73;7.83;;;17.20;99.90;;;;;;5054436;28;20798;-68
2022/09/25 10:23:53;;;;;;;8.60;7.70;;;17.20;99.90;;;;;;5053764;28;20515;-68
2022/09/25 10:26:35;;;;;;;7.40;6.70;;;17.70;99.90;;;;;;5055446;28;20385;-68
2022/09/25 10:29:04;;;;;;;11.93;8.80;;;17.70;99.90;;;;;;5055503;28;20389;-68
2022/09/25 10:31:33;;;;;;;9.30;8.50;;;17.60;99.90;;;;;;5054957;28;20421;-68
2022/09/25 10:34:03;;;;;;;8.60;7.80;;;17.80;99.90;;;;;;5054822;28;20443;-68
2022/09/25 10:36:44;;;;;;;8.10;7.40;;;17.40;99.90;;;;;;5055102;28;20451;-68
2022/09/25 10:39:32;;;;;;;9.30;8.40;;;17.10;99.90;;;;;;5054517;28;20492;-68
2022/09/25 10:42:07;;;;;;;8.83;8.00;;;16.90;99.90;;;;;;5054460;28;20431;-68
2022/09/25 10:44:37;;;;;;;10.07;8.67;;;16.70;99.90;;;;;;5049528;28;20453;-68
2022/09/25 10:50:15;;;;;;;9.67;8.77;;;16.90;99.90;;;;;;5053463;28;20377;-67
2022/09/25 10:52:52;;;;;;;9.87;8.97;;;17.00;99.90;;;;;;5054340;28;20509;-67
2022/09/25 10:55:36;;;;;;;10.50;9.50;;;16.70;99.90;;;;;;5054166;28;20412;-69
2022/09/25 10:58:23;;;;;;;11.70;10.60;;;16.30;99.90;;;;;;5054692;28;20392;-68
2022/09/25 11:00:48;;;;;;;9.93;9.07;;;16.40;99.90;;;;;;5054174;28;20474;-68
2022/09/25 11:03:31;;;;;;;12.70;10.30;;;16.50;99.90;;;;;;5054028;28;20404;-68
2022/09/25 11:06:28;;;;;;;12.10;11.00;;;16.20;99.90;;;;;;5053072;28;20559;-68
2022/09/25 11:09:08;;;;;;;12.37;11.37;;;16.20;99.90;;;;;;5054423;28;20392;-67
2022/09/25 11:11:35;;;;;;;13.60;12.20;;;16.20;99.90;;;;;;5054310;28;20438;-67
2022/09/25 11:14:03;;;;;;;14.33;11.27;;;16.30;99.90;;;;;;5053983;28;20459;-68
2022/09/25 11:16:53;;;;;;;16.23;13.13;;;16.20;99.90;;;;;;5054000;28;20409;-68
2022/09/25 11:19:28;;;;;;;14.17;12.60;;;16.30;99.90;;;;;;5053834;28;20755;-68
2022/09/25 11:22:00;;;;;;;14.87;13.10;;;16.20;99.90;;;;;;5053955;28;20437;-68
2022/09/25 11:24:45;;;;;;;15.97;14.67;;;16.20;99.90;;;;;;5054054;28;20461;-67
2022/09/25 11:27:39;;;;;;;15.60;14.07;;;16.20;99.90;;;;;;5054074;28;20428;-68
2022/09/25 11:30:11;;;;;;;16.57;14.90;;;16.10;99.90;;;;;;5053442;28;20468;-68
2022/09/25 11:32:41;;;;;;;16.30;14.80;;;16.20;99.90;;;;;;5053718;28;20431;-68
2022/09/25 11:35:44;;;;;;;17.80;16.10;;;16.20;99.90;;;;;;5053743;28;20481;-68
2022/09/25 11:41:10;;;;;;;14.97;13.27;;;16.30;99.90;;;;;;5053802;28;20495;-68
2022/09/25 11:41:21;;;;;;;17.20;15.33;;;16.40;99.90;;;;;;5053757;28;20793;-68
2022/09/25 11:44:09;;;;;;;15.70;14.20;;;16.70;99.90;;;;;;5053029;28;20388;-68
2022/09/25 11:47:00;;;;;;;17.23;15.50;;;16.90;99.90;;;;;;5053528;28;20423;-68
2022/09/25 11:49:34;;;;;;;17.73;15.70;;;17.10;99.90;;;;;;5035320;28;20452;-68
2022/09/25 11:52:27;;;;;;;20.47;15.67;;;17.00;99.90;;;;;;5053049;28;20455;-68
2022/09/25 11:55:13;;;;;;;17.90;16.20;;;17.00;99.90;;;;;;5053537;28;20414;-68
2022/09/25 11:58:03;;;;;;;16.87;15.27;;;16.90;99.90;;;;;;5053517;28;20870;-68
2022/09/25 12:01:02;;;;;;;16.80;15.20;;;16.80;99.90;;;;;;5053075;28;20502;-68
2022/09/25 12:03:51;;;;;;;17.13;14.90;;;16.80;99.90;;;;;;5002608;28;20782;-68
2022/09/25 12:06:43;;;;;;;16.43;14.73;;;16.70;99.90;;;;;;5052818;28;20435;-68
2022/09/25 12:09:28;;;;;;;19.43;17.47;;;16.90;99.90;;;;;;5051805;28;20421;-68
2022/09/25 12:12:25;;;;;;;16.73;14.93;;;17.00;99.90;;;;;;5052826;28;20519;-68
2022/09/25 12:14:56;;;;;;;15.80;14.00;;;17.30;99.90;;;;;;5051984;28;20430;-68
2022/09/25 12:17:51;;;;;;;16.80;15.10;;;17.10;99.90;;;;;;5052890;28;20397;-68
2022/09/25 12:20:33;;;;;;;16.60;14.47;;;17.10;99.90;;;;;;5034728;28;20532;-68
2022/09/25 12:23:19;;;;;;;17.63;13.30;;;17.20;99.90;;;;;;5051362;28;20427;-68
2022/09/25 12:26:30;;;;;;;13.90;12.50;;;17.60;99.90;;;;;;5052690;28;20478;-68
2022/09/25 12:29:24;;;;;;;17.27;15.57;;;18.00;99.90;;;;;;5047013;28;20492;-68
2022/09/25 12:32:20;;;;;;;17.10;15.40;;;18.10;99.90;;;;;;5052557;28;20790;-68
2022/09/25 12:34:51;;;;;;;16.00;14.30;;;18.40;99.90;;;;;;5052792;28;20389;-68
2022/09/25 12:37:32;;;;;;;17.90;16.10;;;18.50;99.90;;;;;;5052573;28;20425;-68
2022/09/25 12:40:01;;;;;;;16.60;15.10;;;18.60;99.90;;;;;;5053171;28;20386;-68
2022/09/25 12:42:52;;;;;;;16.60;13.90;;;19.00;99.90;;;;;;5051799;28;20421;-68
2022/09/25 12:45:28;;;;;;;16.07;13.93;;;19.70;99.90;;;;;;5052801;28;20431;-68
2022/09/25 12:48:05;;;;;;;14.83;13.43;;;20.50;99.90;;;;;;5052616;28;20377;-68
2022/09/25 12:50:39;;;;;;;15.70;14.20;;;21.00;99.90;;;;;;5052188;28;20488;-68
2022/09/25 12:53:29;;;;;;;15.97;14.37;;;21.90;99.90;;;;;;5052349;28;20442;-68
2022/09/25 12:55:57;;;;;;;16.17;14.53;;;21.50;99.90;;;;;;5052474;28;20394;-68
2022/09/25 12:58:44;;;;;;;13.27;11.87;;;21.70;99.90;;;;;;5051795;28;20397;-68
2022/09/25 13:01:52;;;;;;;12.17;10.93;;;22.90;99.90;;;;;;5052420;28;20421;-68
2022/09/25 13:04:44;;;;;;;14.70;13.27;;;22.50;99.90;;;;;;5052346;28;20494;-68
2022/09/25 13:07:15;;;;;;;15.00;13.50;;;20.70;99.90;;;;;;5052458;28;20436;-68
2022/09/25 13:09:44;;;;;;;13.90;12.57;;;19.40;99.90;;;;;;5050838;28;20413;-68
2022/09/25 13:12:28;;;;;;;18.20;13.87;;;18.60;99.90;;;;;;5052273;28;20421;-68
2022/09/25 13:15:09;;;;;;;14.30;12.90;;;18.10;99.90;;;;;;5055913;28;20381;-68
2022/09/25 13:17:35;;;;;;;13.80;12.50;;;18.00;99.90;;;;;;5056296;28;20472;-68
2022/09/25 13:20:26;;;;;;;13.80;12.53;;;17.80;99.90;;;;;;5055938;28;20934;-68